Airfield :
LOGIN :

Register | Disclaimer

   EN    FR    IT 

 










Legend :    VFR   Marginal VFR   IFR   Intensive IFR   Very Intensive IFR
Visi :
Ceiling :
>= 8 km
>= 3000ft
5 to 8 km
1000 to 3000 ft
1500m to 5 km
500 to 1000 ft
800 to 1500m
200 to 500 ft
< 800m
< 200 ft
Symbols :   Thunderstorms  Fog  Heavy snow  Heavy precipitations  Wind > 20 kt
SIGMETs :     Misc.  Thunderstorms  Icing  Turbulence  Mountain Waves  Volcanic Ashes






- Airport Elevation : -11 ft
- IATA code : AMS


EHAM - Amsterdam Schiphol

CURRENT METAR :
  • 212255Z 27013KT 9999 FEW041 09/04 Q1013 NOSIG

EXPIRED METARs :
  • 212225Z 26009KT 9999 FEW037 08/04 Q1013 NOSIG
  • 212155Z 27007KT 9999 SCT038 07/04 Q1013 NOSIG
  • 212125Z 29008KT 9999 FEW034 08/04 Q1012 NOSIG
  • 212055Z 30013G23KT 9999 FEW030TCU 08/05 Q1013 NOSIG
  • 212025Z 30010KT 9999 -SHRA FEW028TCU 09/03 Q1012 NOSIG

TAF TAF EHAM
Valid from the 21 at 18:00 until the 23 at 00:00 UTC


211709Z 2118/2224 31015G25KT 9999 SCT035
PROB30
TEMPO 2118/2120 7000 -SHRA FEW030CB SCT035
BECMG 2119/2122 28013KT
BECMG 2202/2205 27018G28KT
BECMG 2205/2208 28023G33KT
BECMG 2213/2216 31013KT
TEMPO 2215/2217 7000 -SHRA SCT022CB BKN025
BECMG 2220/2223 28004KT



MET'MAP, your aeronautical weather chart ! - Copyright ORBIFLY December 2007 - Disclaimer

ORBIFLY MET'MAP TEAM :

Programming & Development : Alexandra Zaïnal
Concept & original design : Baudouin d'Aumeries
Assistance for programming : Marc-Olivier Méhu
Technical & hardware support : Manuel Goepfert

Contact : metmap@orbifly.com




SOURCES & CREDITS :

   NOAA